sensor_id;sensor_type;location;lat;lon;timestamp;pressure;altitude;pressure_sealevel;temperature;humidity
20228;BME280;12195;55.790;37.572;2023-08-30T00:01:31;99605.36;;;16.95;76.64
20228;BME280;12195;55.790;37.572;2023-08-30T00:04:03;99595.84;;;16.93;76.49
20228;BME280;12195;55.790;37.572;2023-08-30T00:06:36;99601.27;;;16.91;76.23
20228;BME280;12195;55.790;37.572;2023-08-30T00:09:09;99598.04;;;16.88;75.96
20228;BME280;12195;55.790;37.572;2023-08-30T00:11:41;99601.79;;;16.85;75.89
20228;BME280;12195;55.790;37.572;2023-08-30T00:14:14;99605.42;;;16.84;75.98
20228;BME280;12195;55.790;37.572;2023-08-30T00:16:47;99607.09;;;16.85;76.19
20228;BME280;12195;55.790;37.572;2023-08-30T00:19:20;99599.26;;;16.84;76.00
20228;BME280;12195;55.790;37.572;2023-08-30T00:21:52;99598.16;;;16.86;76.03
20228;BME280;12195;55.790;37.572;2023-08-30T00:24:25;99600.81;;;16.86;75.71
20228;BME280;12195;55.790;37.572;2023-08-30T00:26:58;99600.81;;;16.86;75.65
20228;BME280;12195;55.790;37.572;2023-08-30T00:29:31;99596.36;;;16.87;75.45
20228;BME280;12195;55.790;37.572;2023-08-30T00:32:05;99603.47;;;16.86;75.15
20228;BME280;12195;55.790;37.572;2023-08-30T00:34:37;99601.67;;;16.87;74.83
20228;BME280;12195;55.790;37.572;2023-08-30T00:37:10;99607.95;;;16.86;74.81
20228;BME280;12195;55.790;37.572;2023-08-30T00:39:42;99605.42;;;16.84;75.03
20228;BME280;12195;55.790;37.572;2023-08-30T00:42:14;99605.66;;;16.81;74.29
20228;BME280;12195;55.790;37.572;2023-08-30T00:44:47;99612.91;;;16.79;74.39
20228;BME280;12195;55.790;37.572;2023-08-30T00:47:20;99621.35;;;16.73;74.62
20228;BME280;12195;55.790;37.572;2023-08-30T00:49:53;99618.82;;;16.72;74.93
20228;BME280;12195;55.790;37.572;2023-08-30T00:52:26;99621.59;;;16.70;75.04
20228;BME280;12195;55.790;37.572;2023-08-30T00:55:00;99622.69;;;16.68;74.92
20228;BME280;12195;55.790;37.572;2023-08-30T00:57:33;99635.12;;;16.67;74.99
20228;BME280;12195;55.790;37.572;2023-08-30T01:00:07;99633.29;;;16.68;75.00
20228;BME280;12195;55.790;37.572;2023-08-30T01:02:39;99638.86;;;16.65;75.12
20228;BME280;12195;55.790;37.572;2023-08-30T01:05:12;99629.08;;;16.65;75.29
20228;BME280;12195;55.790;37.572;2023-08-30T01:07:45;99641.36;;;16.66;75.11
20228;BME280;12195;55.790;37.572;2023-08-30T01:10:28;99633.56;;;16.65;74.75
20228;BME280;12195;55.790;37.572;2023-08-30T01:12:56;99638.01;;;16.64;74.89
20228;BME280;12195;55.790;37.572;2023-08-30T01:15:28;99641.63;;;16.63;74.82
20228;BME280;12195;55.790;37.572;2023-08-30T01:18:03;99636.33;;;16.63;74.83
20228;BME280;12195;55.790;37.572;2023-08-30T01:20:38;99641.63;;;16.63;74.91
20228;BME280;12195;55.790;37.572;2023-08-30T01:23:40;99639.92;;;16.62;74.88
20228;BME280;12195;55.790;37.572;2023-08-30T01:26:20;99641.63;;;16.63;74.90
20228;BME280;12195;55.790;37.572;2023-08-30T01:28:53;99638.01;;;16.64;75.13
20228;BME280;12195;55.790;37.572;2023-08-30T01:31:32;99638.01;;;16.64;75.14
20228;BME280;12195;55.790;37.572;2023-08-30T01:34:04;99634.27;;;16.67;75.17
20228;BME280;12195;55.790;37.572;2023-08-30T01:36:37;99641.36;;;16.66;74.89
20228;BME280;12195;55.790;37.572;2023-08-30T01:39:13;99643.89;;;16.68;74.79
20228;BME280;12195;55.790;37.572;2023-08-30T01:41:48;99647.52;;;16.67;74.90
20228;BME280;12195;55.790;37.572;2023-08-30T01:44:22;99638.59;;;16.68;74.77
20228;BME280;12195;55.790;37.572;2023-08-30T01:46:56;99651.03;;;16.67;74.77
20228;BME280;12195;55.790;37.572;2023-08-30T01:49:30;99652.95;;;16.65;74.70
20228;BME280;12195;55.790;37.572;2023-08-30T01:52:03;99653.92;;;16.64;74.61
20228;BME280;12195;55.790;37.572;2023-08-30T01:54:37;99651.48;;;16.83;74.53
20228;BME280;12195;55.790;37.572;2023-08-30T01:57:10;99658.36;;;16.64;74.80
20228;BME280;12195;55.790;37.572;2023-08-30T01:59:43;99649.70;;;16.62;74.81
20228;BME280;12195;55.790;37.572;2023-08-30T02:02:15;99649.83;;;16.60;75.02
20228;BME280;12195;55.790;37.572;2023-08-30T02:04:48;99641.88;;;16.60;74.92
20228;BME280;12195;55.790;37.572;2023-08-30T02:07:31;99655.12;;;16.60;74.86
20228;BME280;12195;55.790;37.572;2023-08-30T02:10:02;99648.03;;;16.61;75.04
20228;BME280;12195;55.790;37.572;2023-08-30T02:12:49;99655.12;;;16.60;75.00
20228;BME280;12195;55.790;37.572;2023-08-30T02:15:11;99643.78;;;16.58;74.73
20228;BME280;12195;55.790;37.572;2023-08-30T02:17:44;99641.28;;;16.57;74.96
20228;BME280;12195;55.790;37.572;2023-08-30T02:20:18;99651.03;;;16.56;74.82
20228;BME280;12195;55.790;37.572;2023-08-30T02:22:51;99640.55;;;16.55;74.55
20228;BME280;12195;55.790;37.572;2023-08-30T02:25:23;99646.70;;;16.55;74.63
20228;BME280;12195;55.790;37.572;2023-08-30T02:27:57;99647.53;;;16.56;75.02
20228;BME280;12195;55.790;37.572;2023-08-30T02:30:29;99651.03;;;16.56;74.59
20228;BME280;12195;55.790;37.572;2023-08-30T02:33:02;99652.95;;;16.54;74.49
20228;BME280;12195;55.790;37.572;2023-08-30T02:35:35;99654.66;;;16.55;74.53
20228;BME280;12195;55.790;37.572;2023-08-30T02:38:08;99657.43;;;16.54;74.51
20228;BME280;12195;55.790;37.572;2023-08-30T02:40:41;99663.31;;;16.57;74.84
20228;BME280;12195;55.790;37.572;2023-08-30T02:43:14;99671.27;;;16.57;74.22
20228;BME280;12195;55.790;37.572;2023-08-30T02:45:47;99667.80;;;16.57;73.82
20228;BME280;12195;55.790;37.572;2023-08-30T02:48:21;99669.59;;;16.56;74.01
20228;BME280;12195;55.790;37.572;2023-08-30T02:50:53;99669.59;;;16.56;73.86
20228;BME280;12195;55.790;37.572;2023-08-30T02:53:27;99670.56;;;16.55;73.94
20228;BME280;12195;55.790;37.572;2023-08-30T02:55:59;99666.94;;;16.56;73.99
20228;BME280;12195;55.790;37.572;2023-08-30T02:58:32;99676.81;;;16.54;73.79
20228;BME280;12195;55.790;37.572;2023-08-30T03:01:05;99675.02;;;16.55;73.85
20228;BME280;12195;55.790;37.572;2023-08-30T03:03:38;99672.48;;;16.53;73.58
20228;BME280;12195;55.790;37.572;2023-08-30T03:06:10;99670.56;;;16.55;73.35
20228;BME280;12195;55.790;37.572;2023-08-30T03:08:43;99672.48;;;16.53;73.26
20228;BME280;12195;55.790;37.572;2023-08-30T03:11:16;99666.20;;;16.54;73.02
20228;BME280;12195;55.790;37.572;2023-08-30T03:13:50;99662.61;;;16.55;73.16
20228;BME280;12195;55.790;37.572;2023-08-30T03:16:22;99672.48;;;16.53;72.90
20228;BME280;12195;55.790;37.572;2023-08-30T03:18:55;99669.01;;;16.53;72.34
20228;BME280;12195;55.790;37.572;2023-08-30T03:21:27;99660.20;;;16.52;72.37
20228;BME280;12195;55.790;37.572;2023-08-30T03:24:00;99664.52;;;16.53;71.91
20228;BME280;12195;55.790;37.572;2023-08-30T03:26:32;99669.12;;;16.51;71.56
20228;BME280;12195;55.790;37.572;2023-08-30T03:29:05;99678.28;;;16.47;71.52
20228;BME280;12195;55.790;37.572;2023-08-30T03:31:37;99663.47;;;16.45;71.44
20228;BME280;12195;55.790;37.572;2023-08-30T03:34:10;99672.98;;;16.47;71.19
20228;BME280;12195;55.790;37.572;2023-08-30T03:36:43;99669.12;;;16.51;71.02
20228;BME280;12195;55.790;37.572;2023-08-30T03:39:17;99673.92;;;16.57;70.77
20228;BME280;12195;55.790;37.572;2023-08-30T03:41:51;99674.04;;;16.67;70.64
20228;BME280;12195;55.790;37.572;2023-08-30T03:44:25;99679.69;;;16.73;70.34
20228;BME280;12195;55.790;37.572;2023-08-30T03:46:57;99671.38;;;16.78;70.12
20228;BME280;12195;55.790;37.572;2023-08-30T03:49:30;99679.69;;;16.84;70.15
20228;BME280;12195;55.790;37.572;2023-08-30T03:52:03;99666.03;;;16.89;69.94
20228;BME280;12195;55.790;37.572;2023-08-30T03:54:36;99664.11;;;16.91;69.61
20228;BME280;12195;55.790;37.572;2023-08-30T03:57:09;99666.02;;;17.00;69.38
20228;BME280;12195;55.790;37.572;2023-08-30T03:59:41;99671.90;;;17.03;68.93
20228;BME280;12195;55.790;37.572;2023-08-30T04:02:15;99677.42;;;17.11;68.92
20228;BME280;12195;55.790;37.572;2023-08-30T04:04:48;99672.61;;;17.16;68.50
20228;BME280;12195;55.790;37.572;2023-08-30T04:07:21;99681.61;;;17.25;68.53
20228;BME280;12195;55.790;37.572;2023-08-30T04:09:53;99673.00;;;17.32;68.06
20228;BME280;12195;55.790;37.572;2023-08-30T04:12:28;99666.63;;;17.35;67.71
20228;BME280;12195;55.790;37.572;2023-08-30T04:15:01;99672.39;;;17.40;67.46
20228;BME280;12195;55.790;37.572;2023-08-30T04:17:34;99670.34;;;17.43;67.23
20228;BME280;12195;55.790;37.572;2023-08-30T04:20:08;99673.45;;;17.48;67.37
20228;BME280;12195;55.790;37.572;2023-08-30T04:22:41;99675.61;;;17.54;67.39
20228;BME280;12195;55.790;37.572;2023-08-30T04:25:14;99673.16;;;17.62;67.29
20228;BME280;12195;55.790;37.572;2023-08-30T04:27:46;99666.87;;;17.63;66.95
20228;BME280;12195;55.790;37.572;2023-08-30T04:30:19;99674.46;;;17.68;66.51
20228;BME280;12195;55.790;37.572;2023-08-30T04:32:52;99671.40;;;17.72;66.80
20228;BME280;12195;55.790;37.572;2023-08-30T04:35:25;99681.33;;;17.70;66.08
20228;BME280;12195;55.790;37.572;2023-08-30T04:37:59;99684.96;;;17.69;65.80
20228;BME280;12195;55.790;37.572;2023-08-30T04:40:33;99683.70;;;17.73;65.90
20228;BME280;12195;55.790;37.572;2023-08-30T04:43:06;99686.96;;;17.77;65.65
20228;BME280;12195;55.790;37.572;2023-08-30T04:45:39;99697.66;;;17.86;65.41
20228;BME280;12195;55.790;37.572;2023-08-30T04:48:12;99690.83;;;17.93;64.46
20228;BME280;12195;55.790;37.572;2023-08-30T04:50:46;99687.80;;;17.98;63.99
20228;BME280;12195;55.790;37.572;2023-08-30T04:53:18;99698.74;;;18.04;64.04
20228;BME280;12195;55.790;37.572;2023-08-30T04:55:52;99694.16;;;18.06;63.83
20228;BME280;12195;55.790;37.572;2023-08-30T04:58:24;99694.34;;;18.14;63.92
20228;BME280;12195;55.790;37.572;2023-08-30T05:00:57;99689.34;;;18.21;63.53
20228;BME280;12195;55.790;37.572;2023-08-30T05:03:30;99694.84;;;18.29;63.35
20228;BME280;12195;55.790;37.572;2023-08-30T05:06:03;99691.89;;;18.32;62.91
20228;BME280;12195;55.790;37.572;2023-08-30T05:08:35;99691.55;;;18.36;62.69
20228;BME280;12195;55.790;37.572;2023-08-30T05:11:09;99683.44;;;18.38;62.46
20228;BME280;12195;55.790;37.572;2023-08-30T05:13:42;99679.41;;;18.43;62.70
20228;BME280;12195;55.790;37.572;2023-08-30T05:16:16;99686.14;;;18.47;62.30
20228;BME280;12195;55.790;37.572;2023-08-30T05:18:48;99683.14;;;18.71;62.43
20228;BME280;12195;55.790;37.572;2023-08-30T05:21:21;99679.95;;;18.86;61.40
20228;BME280;12195;55.790;37.572;2023-08-30T05:23:55;99687.16;;;19.14;61.08
20228;BME280;12195;55.790;37.572;2023-08-30T05:26:28;99690.16;;;19.30;60.11
20228;BME280;12195;55.790;37.572;2023-08-30T05:29:01;99683.30;;;19.37;59.31
20228;BME280;12195;55.790;37.572;2023-08-30T05:31:34;99671.39;;;19.41;59.14
20228;BME280;12195;55.790;37.572;2023-08-30T05:34:18;99664.36;;;19.40;59.38
20228;BME280;12195;55.790;37.572;2023-08-30T05:37:08;99665.92;;;19.33;59.56
20228;BME280;12195;55.790;37.572;2023-08-30T05:39:58;99666.73;;;19.24;59.51
20228;BME280;12195;55.790;37.572;2023-08-30T05:42:32;99669.93;;;19.18;59.82
20228;BME280;12195;55.790;37.572;2023-08-30T05:45:06;99665.01;;;19.14;59.67
20228;BME280;12195;55.790;37.572;2023-08-30T05:47:40;99659.82;;;19.12;59.95
20228;BME280;12195;55.790;37.572;2023-08-30T05:50:15;99664.61;;;19.18;60.27
20228;BME280;12195;55.790;37.572;2023-08-30T05:52:50;99674.18;;;19.30;60.27
20228;BME280;12195;55.790;37.572;2023-08-30T05:55:25;99686.92;;;19.36;59.44
20228;BME280;12195;55.790;37.572;2023-08-30T05:58:00;99686.25;;;19.44;59.17
20228;BME280;12195;55.790;37.572;2023-08-30T06:00:32;99693.80;;;19.48;58.60
20228;BME280;12195;55.790;37.572;2023-08-30T06:03:05;99701.52;;;19.51;58.28
20228;BME280;12195;55.790;37.572;2023-08-30T06:05:39;99685.54;;;19.61;58.30
20228;BME280;12195;55.790;37.572;2023-08-30T06:08:12;99676.28;;;19.74;57.85
20228;BME280;12195;55.790;37.572;2023-08-30T06:10:45;99689.02;;;19.90;57.51
20228;BME280;12195;55.790;37.572;2023-08-30T06:13:18;99702.17;;;20.10;56.82
20228;BME280;12195;55.790;37.572;2023-08-30T06:15:52;99704.13;;;20.27;56.47
20228;BME280;12195;55.790;37.572;2023-08-30T06:18:26;99695.25;;;20.36;56.19
20228;BME280;12195;55.790;37.572;2023-08-30T06:20:59;99697.32;;;20.42;55.58
20228;BME280;12195;55.790;37.572;2023-08-30T06:23:32;99695.22;;;20.46;55.68
20228;BME280;12195;55.790;37.572;2023-08-30T06:26:06;99697.72;;;20.47;55.35
20228;BME280;12195;55.790;37.572;2023-08-30T06:28:39;99695.75;;;20.49;55.06
20228;BME280;12195;55.790;37.572;2023-08-30T06:31:13;99689.53;;;20.58;55.07
20228;BME280;12195;55.790;37.572;2023-08-30T06:33:46;99686.83;;;20.68;54.77
20228;BME280;12195;55.790;37.572;2023-08-30T06:36:20;99676.49;;;20.83;54.73
20228;BME280;12195;55.790;37.572;2023-08-30T06:38:55;99687.40;;;20.99;54.30
20228;BME280;12195;55.790;37.572;2023-08-30T06:41:27;99695.03;;;21.11;53.57
20228;BME280;12195;55.790;37.572;2023-08-30T06:44:00;99688.25;;;21.17;53.53
20228;BME280;12195;55.790;37.572;2023-08-30T06:46:34;99684.29;;;21.21;53.21
20228;BME280;12195;55.790;37.572;2023-08-30T06:49:06;99686.05;;;21.30;53.02
20228;BME280;12195;55.790;37.572;2023-08-30T06:51:41;99691.33;;;21.39;52.88
20228;BME280;12195;55.790;37.572;2023-08-30T06:54:14;99685.05;;;21.48;52.74
20228;BME280;12195;55.790;37.572;2023-08-30T06:57:00;99681.72;;;21.46;52.28
20228;BME280;12195;55.790;37.572;2023-08-30T06:59:34;99687.98;;;21.55;52.73
20228;BME280;12195;55.790;37.572;2023-08-30T07:02:07;99693.16;;;21.56;52.15
20228;BME280;12195;55.790;37.572;2023-08-30T07:04:41;99693.63;;;21.52;52.40
20228;BME280;12195;55.790;37.572;2023-08-30T07:07:15;99695.83;;;21.56;53.27
20228;BME280;12195;55.790;37.572;2023-08-30T07:09:48;99687.80;;;21.56;52.43
20228;BME280;12195;55.790;37.572;2023-08-30T07:12:22;99687.73;;;21.66;52.21
20228;BME280;12195;55.790;37.572;2023-08-30T07:14:54;99689.05;;;21.79;52.21
20228;BME280;12195;55.790;37.572;2023-08-30T07:17:28;99693.46;;;21.88;51.35
20228;BME280;12195;55.790;37.572;2023-08-30T07:20:03;99699.02;;;21.95;51.14
20228;BME280;12195;55.790;37.572;2023-08-30T07:22:38;99701.77;;;22.03;50.75
20228;BME280;12195;55.790;37.572;2023-08-30T07:25:11;99705.66;;;22.08;50.72
20228;BME280;12195;55.790;37.572;2023-08-30T07:27:46;99704.59;;;22.01;50.78
20228;BME280;12195;55.790;37.572;2023-08-30T07:30:20;99692.31;;;21.91;51.32
20228;BME280;12195;55.790;37.572;2023-08-30T07:32:52;99693.25;;;21.82;51.28
20228;BME280;12195;55.790;37.572;2023-08-30T07:35:25;99709.44;;;21.80;51.60
20228;BME280;12195;55.790;37.572;2023-08-30T07:37:57;99700.27;;;21.83;51.48
20228;BME280;12195;55.790;37.572;2023-08-30T07:40:32;99705.02;;;21.89;51.12
20228;BME280;12195;55.790;37.572;2023-08-30T07:43:05;99707.05;;;21.95;50.81
20228;BME280;12195;55.790;37.572;2023-08-30T07:45:39;99692.38;;;21.99;50.94
20228;BME280;12195;55.790;37.572;2023-08-30T07:48:13;99692.28;;;22.08;50.72
20228;BME280;12195;55.790;37.572;2023-08-30T07:50:47;99703.55;;;22.20;50.42
20228;BME280;12195;55.790;37.572;2023-08-30T07:53:20;99703.55;;;22.20;50.42
20228;BME280;12195;55.790;37.572;2023-08-30T07:55:52;99699.56;;;22.24;50.22
20228;BME280;12195;55.790;37.572;2023-08-30T07:58:25;99701.78;;;22.28;50.26
20228;BME280;12195;55.790;37.572;2023-08-30T08:00:58;99709.41;;;22.41;50.13
20228;BME280;12195;55.790;37.572;2023-08-30T08:03:30;99710.92;;;22.43;49.30
20228;BME280;12195;55.790;37.572;2023-08-30T08:06:04;99713.28;;;22.46;49.25
20228;BME280;12195;55.790;37.572;2023-08-30T08:08:37;99706.70;;;22.66;49.42
20228;BME280;12195;55.790;37.572;2023-08-30T08:11:10;99709.62;;;22.81;48.48
20228;BME280;12195;55.790;37.572;2023-08-30T08:13:43;99718.97;;;23.18;49.79
20228;BME280;12195;55.790;37.572;2023-08-30T08:16:16;99721.44;;;23.04;47.42
20228;BME280;12195;55.790;37.572;2023-08-30T08:18:49;99722.42;;;23.52;48.64
20228;BME280;12195;55.790;37.572;2023-08-30T08:21:41;99721.92;;;23.49;46.25
20228;BME280;12195;55.790;37.572;2023-08-30T08:24:14;99712.72;;;23.59;45.86
20228;BME280;12195;55.790;37.572;2023-08-30T08:26:48;99717.58;;;23.72;45.88
20228;BME280;12195;55.790;37.572;2023-08-30T08:29:21;99719.11;;;23.66;45.93
20228;BME280;12195;55.790;37.572;2023-08-30T08:31:54;99726.99;;;23.68;46.12
20228;BME280;12195;55.790;37.572;2023-08-30T08:34:28;99729.00;;;23.82;46.08
20228;BME280;12195;55.790;37.572;2023-08-30T08:37:01;99737.91;;;24.06;45.28
20228;BME280;12195;55.790;37.572;2023-08-30T08:39:33;99738.06;;;24.21;44.56
20228;BME280;12195;55.790;37.572;2023-08-30T08:42:08;99730.66;;;24.47;44.50
20228;BME280;12195;55.790;37.572;2023-08-30T08:44:42;99731.48;;;24.63;43.90
20228;BME280;12195;55.790;37.572;2023-08-30T08:47:17;99726.25;;;24.70;43.81
20228;BME280;12195;55.790;37.572;2023-08-30T08:49:53;99731.30;;;24.57;44.05
20228;BME280;12195;55.790;37.572;2023-08-30T08:52:28;99737.35;;;24.59;43.94
20228;BME280;12195;55.790;37.572;2023-08-30T08:55:09;99728.95;;;24.62;43.97
20228;BME280;12195;55.790;37.572;2023-08-30T08:57:52;99725.27;;;24.55;44.08
20228;BME280;12195;55.790;37.572;2023-08-30T09:00:24;99736.70;;;24.41;43.92
20228;BME280;12195;55.790;37.572;2023-08-30T09:02:58;99739.08;;;24.20;44.75
20228;BME280;12195;55.790;37.572;2023-08-30T09:05:33;99745.63;;;24.01;44.94
20228;BME280;12195;55.790;37.572;2023-08-30T09:08:07;99748.80;;;23.89;45.18
20228;BME280;12195;55.790;37.572;2023-08-30T09:10:41;99743.44;;;23.89;45.46
20228;BME280;12195;55.790;37.572;2023-08-30T09:13:14;99743.80;;;24.10;45.90
20228;BME280;12195;55.790;37.572;2023-08-30T09:15:48;99747.45;;;24.25;44.61
20228;BME280;12195;55.790;37.572;2023-08-30T09:18:24;99747.13;;;24.28;44.74
20228;BME280;12195;55.790;37.572;2023-08-30T09:21:07;99751.32;;;24.22;44.47
20228;BME280;12195;55.790;37.572;2023-08-30T09:23:44;99755.19;;;24.20;45.26
20228;BME280;12195;55.790;37.572;2023-08-30T09:26:17;99752.50;;;24.20;45.24
20228;BME280;12195;55.790;37.572;2023-08-30T09:28:50;99755.88;;;24.22;45.11
20228;BME280;12195;55.790;37.572;2023-08-30T09:31:23;99755.33;;;24.42;44.51
20228;BME280;12195;55.790;37.572;2023-08-30T09:34:01;99756.81;;;24.69;43.57
20228;BME280;12195;55.790;37.572;2023-08-30T09:36:41;99743.62;;;24.98;43.13
20228;BME280;12195;55.790;37.572;2023-08-30T09:39:16;99748.41;;;25.19;42.88
20228;BME280;12195;55.790;37.572;2023-08-30T09:41:49;99750.97;;;25.12;43.04
20228;BME280;12195;55.790;37.572;2023-08-30T09:44:22;99753.06;;;24.86;42.89
20228;BME280;12195;55.790;37.572;2023-08-30T09:46:56;99763.53;;;24.49;43.80
20228;BME280;12195;55.790;37.572;2023-08-30T09:49:34;99764.58;;;24.08;44.31
20228;BME280;12195;55.790;37.572;2023-08-30T09:52:06;99764.02;;;23.72;45.62
20228;BME280;12195;55.790;37.572;2023-08-30T09:54:41;99780.91;;;23.49;46.44
20228;BME280;12195;55.790;37.572;2023-08-30T09:57:15;99778.20;;;23.41;46.61
20228;BME280;12195;55.790;37.572;2023-08-30T09:59:52;99773.50;;;23.43;46.43
20228;BME280;12195;55.790;37.572;2023-08-30T10:02:25;99772.53;;;23.44;46.08
20228;BME280;12195;55.790;37.572;2023-08-30T10:05:00;99783.25;;;23.44;46.46
20228;BME280;12195;55.790;37.572;2023-08-30T10:07:34;99788.61;;;23.44;46.07
20228;BME280;12195;55.790;37.572;2023-08-30T10:10:10;99788.45;;;23.45;46.01
20228;BME280;12195;55.790;37.572;2023-08-30T10:12:46;99796.17;;;23.56;46.11
20228;BME280;12195;55.790;37.572;2023-08-30T10:15:22;99785.14;;;23.67;46.07
20228;BME280;12195;55.790;37.572;2023-08-30T10:17:57;99786.67;;;23.78;45.55
20228;BME280;12195;55.790;37.572;2023-08-30T10:20:31;99785.05;;;23.93;45.43
20228;BME280;12195;55.790;37.572;2023-08-30T10:23:08;99786.73;;;23.94;45.31
20228;BME280;12195;55.790;37.572;2023-08-30T10:25:43;99776.45;;;23.89;45.11
20228;BME280;12195;55.790;37.572;2023-08-30T10:28:20;99780.61;;;23.76;44.81
20228;BME280;12195;55.790;37.572;2023-08-30T10:30:54;99772.91;;;23.65;45.44
20228;BME280;12195;55.790;37.572;2023-08-30T10:33:29;99775.05;;;23.61;45.74
20228;BME280;12195;55.790;37.572;2023-08-30T10:36:06;99768.19;;;23.59;45.92
20228;BME280;12195;55.790;37.572;2023-08-30T10:38:48;99772.89;;;23.57;45.82
20228;BME280;12195;55.790;37.572;2023-08-30T10:41:21;99763.83;;;23.58;45.66
20228;BME280;12195;55.790;37.572;2023-08-30T10:43:55;99776.58;;;23.56;45.78
20228;BME280;12195;55.790;37.572;2023-08-30T10:46:31;99777.08;;;23.59;45.76
20228;BME280;12195;55.790;37.572;2023-08-30T10:49:12;99773.41;;;23.68;45.88
20228;BME280;12195;55.790;37.572;2023-08-30T10:51:55;99769.23;;;23.74;45.52
20228;BME280;12195;55.790;37.572;2023-08-30T10:54:37;99771.57;;;23.69;45.03
20228;BME280;12195;55.790;37.572;2023-08-30T10:57:20;99773.05;;;23.55;45.31
20228;BME280;12195;55.790;37.572;2023-08-30T11:00:20;99773.00;;;23.39;45.31
20228;BME280;12195;55.790;37.572;2023-08-30T11:03:10;99779.50;;;23.29;45.75
20228;BME280;12195;55.790;37.572;2023-08-30T11:05:54;99777.64;;;23.21;46.19
20228;BME280;12195;55.790;37.572;2023-08-30T11:08:30;99775.41;;;23.17;46.14
20228;BME280;12195;55.790;37.572;2023-08-30T11:11:08;99773.95;;;23.22;46.21
20228;BME280;12195;55.790;37.572;2023-08-30T11:13:44;99772.47;;;23.28;46.05
20228;BME280;12195;55.790;37.572;2023-08-30T11:16:21;99775.69;;;23.39;46.27
20228;BME280;12195;55.790;37.572;2023-08-30T11:18:55;99775.05;;;23.45;45.97
20228;BME280;12195;55.790;37.572;2023-08-30T11:21:28;99771.20;;;23.48;46.43
20228;BME280;12195;55.790;37.572;2023-08-30T11:24:03;99770.48;;;23.38;46.05
20228;BME280;12195;55.790;37.572;2023-08-30T11:26:36;99769.10;;;23.26;46.36
20228;BME280;12195;55.790;37.572;2023-08-30T11:29:10;99767.33;;;23.09;46.76
20228;BME280;12195;55.790;37.572;2023-08-30T11:31:45;99772.77;;;22.91;47.04
20228;BME280;12195;55.790;37.572;2023-08-30T11:34:21;99758.83;;;22.80;47.41
20228;BME280;12195;55.790;37.572;2023-08-30T11:36:55;99765.66;;;22.74;47.89
20228;BME280;12195;55.790;37.572;2023-08-30T11:39:31;99765.97;;;22.71;48.06
20228;BME280;12195;55.790;37.572;2023-08-30T11:42:05;99768.88;;;22.78;48.23
20228;BME280;12195;55.790;37.572;2023-08-30T11:44:40;99765.39;;;22.85;48.01
20228;BME280;12195;55.790;37.572;2023-08-30T11:47:22;99769.47;;;22.97;47.63
20228;BME280;12195;55.790;37.572;2023-08-30T11:49:56;99779.52;;;23.03;46.63
20228;BME280;12195;55.790;37.572;2023-08-30T11:52:33;99777.05;;;23.10;47.16
20228;BME280;12195;55.790;37.572;2023-08-30T11:55:07;99780.57;;;23.10;46.91
20228;BME280;12195;55.790;37.572;2023-08-30T11:57:47;99777.42;;;23.15;46.95
20228;BME280;12195;55.790;37.572;2023-08-30T12:00:20;99777.80;;;23.20;47.15
20228;BME280;12195;55.790;37.572;2023-08-30T12:02:52;99779.19;;;23.32;47.13
20228;BME280;12195;55.790;37.572;2023-08-30T12:05:25;99768.34;;;23.57;46.60
20228;BME280;12195;55.790;37.572;2023-08-30T12:07:58;99772.14;;;24.04;45.78
20228;BME280;12195;55.790;37.572;2023-08-30T12:10:33;99759.67;;;24.51;46.01
20228;BME280;12195;55.790;37.572;2023-08-30T12:13:06;99755.42;;;24.89;43.64
20228;BME280;12195;55.790;37.572;2023-08-30T12:15:40;99747.99;;;25.38;42.42
20228;BME280;12195;55.790;37.572;2023-08-30T12:18:13;99750.68;;;26.13;41.11
20228;BME280;12195;55.790;37.572;2023-08-30T12:23:32;99740.50;;;28.59;36.23
20228;BME280;12195;55.790;37.572;2023-08-30T12:26:05;99724.05;;;30.21;33.37
20228;BME280;12195;55.790;37.572;2023-08-30T12:28:40;99722.48;;;31.54;35.48
20228;BME280;12195;55.790;37.572;2023-08-30T12:31:14;99718.25;;;32.69;29.38
20228;BME280;12195;55.790;37.572;2023-08-30T12:33:47;99699.34;;;34.17;27.07
20228;BME280;12195;55.790;37.572;2023-08-30T12:36:21;99702.70;;;35.27;25.62
20228;BME280;12195;55.790;37.572;2023-08-30T12:38:54;99692.20;;;35.47;25.26
20228;BME280;12195;55.790;37.572;2023-08-30T12:41:27;99692.77;;;35.21;25.32
20228;BME280;12195;55.790;37.572;2023-08-30T12:44:00;99695.23;;;35.62;24.87
20228;BME280;12195;55.790;37.572;2023-08-30T12:46:34;99693.25;;;36.68;23.68
20228;BME280;12195;55.790;37.572;2023-08-30T12:49:06;99706.30;;;38.59;27.99
20228;BME280;12195;55.790;37.572;2023-08-30T12:51:39;99689.56;;;39.12;21.28
20228;BME280;12195;55.790;37.572;2023-08-30T12:54:13;99689.82;;;40.17;19.89
20228;BME280;12195;55.790;37.572;2023-08-30T12:56:48;99670.34;;;41.17;18.83
20228;BME280;12195;55.790;37.572;2023-08-30T12:59:21;99664.48;;;41.77;18.21
20228;BME280;12195;55.790;37.572;2023-08-30T13:01:55;99664.30;;;42.02;17.89
20228;BME280;12195;55.790;37.572;2023-08-30T13:04:29;99663.67;;;42.10;17.63
20228;BME280;12195;55.790;37.572;2023-08-30T13:07:02;99654.60;;;42.38;17.36
20228;BME280;12195;55.790;37.572;2023-08-30T13:09:35;99647.73;;;42.59;16.73
20228;BME280;12195;55.790;37.572;2023-08-30T13:12:10;99638.70;;;42.77;16.46
20228;BME280;12195;55.790;37.572;2023-08-30T13:14:43;99617.33;;;43.06;16.24
20228;BME280;12195;55.790;37.572;2023-08-30T13:17:16;99613.02;;;43.37;16.04
20228;BME280;12195;55.790;37.572;2023-08-30T13:19:49;99611.69;;;43.53;16.13
20228;BME280;12195;55.790;37.572;2023-08-30T13:22:22;99607.41;;;43.61;16.09
20228;BME280;12195;55.790;37.572;2023-08-30T13:24:56;99599.40;;;43.59;16.24
20228;BME280;12195;55.790;37.572;2023-08-30T13:27:31;99597.70;;;43.45;16.20
20228;BME280;12195;55.790;37.572;2023-08-30T13:30:04;99603.98;;;43.50;16.19